Alamogordo White Sands Regional Airport
KALM : now visible

Airfield :











YOU CAN JOIN US ON...

 
LOGIN :

Register | Disclaimer

   EN    FR    IT 

 









Legend :    VFR   Marginal VFR   IFR   Intensive IFR   Very Intensive IFR
Visi :
Ceiling :
>= 8 km
>= 3000ft
5 to 8 km
1000 to 3000 ft
1500m to 5 km
500 to 1000 ft
800 to 1500m
200 to 500 ft
< 800m
< 200 ft
Symbols :   Thunderstorms  Fog  Heavy snow  Heavy precipitations  Wind > 20 kt






- Airport Elevation : 4200 ft
- IATA code : ALM


KALM - Alamogordo White Sands Regional

CURRENT METAR :
  • 200815Z AUTO 15011KT 10SM CLR 12/M01 A2990 RMK AO2

EXPIRED METARs :
  • 200755Z AUTO 16004KT 10SM CLR 13/M01 A2990 RMK AO2
  • 200735Z AUTO 15007KT 10SM CLR 12/00 A2990 RMK AO2
  • 200715Z AUTO 15008KT 10SM CLR 12/00 A2989 RMK AO2
  • 200655Z AUTO 16007KT 10SM CLR 13/M02 A2990 RMK AO2
  • 200635Z AUTO 15009KT 10SM CLR 13/M01 A2990 RMK AO2
  • 200615Z AUTO 15009KT 10SM CLR 12/M01 A2991 RMK AO2
  • 200555Z AUTO 16007KT 10SM CLR 12/M02 A2992 RMK AO2
  • 200535Z AUTO 16005KT 10SM CLR 12/M02 A2992 RMK AO2

TAF N/A



MET'MAP, your aeronautical weather chart ! - Copyright ORBIFLY December 2007 - Disclaimer

ORBIFLY MET'MAP TEAM :

Programming & Development : Alexandra Zaïnal
Concept & Development : Baudouin d'Aumeries
Co-Development & Prog : Marc-Olivier Méhu
Technical & hardware support : Manuel Goepfert

Contact : metmap@orbifly.com




SOURCES & CREDITS :

   NOAA       Earth
Advisory